This is the latest recevied weather packets stored in our database for station/object YO3LAW-13. If no packets are shown the sender has not sent any weather packets the latest 1 day(s).
| Time | Temp. | Humidity | Pressure | Rain* | Wind** | Luminosity | Snow |
|---|---|---|---|---|---|---|---|
| 1778048747 | 18.33° C | 53% | 1005 hPa | 0 mm | - | - | - |
| 1778048147 | 17.78° C | 53% | 1005 hPa | 0 mm | - | - | - |
| 1778047547 | 16.67° C | 54% | 1005 hPa | 0 mm | - | - | - |
| 1778046947 | 16.11° C | 56% | 1005.2 hPa | 0 mm | - | - | - |
| 1778046347 | 15.56° C | 60% | 1005 hPa | 0 mm | - | - | - |
| 1778045747 | 15° C | 60% | 1005.3 hPa | 0 mm | - | - | - |
| 1778045147 | 14.44° C | 63% | 1005 hPa | 0 mm | - | - | - |
| 1778044547 | 13.89° C | 67% | 1005.1 hPa | 0 mm | - | - | - |
| 1778043947 | 12.78° C | 67% | 1005 hPa | 0 mm | - | - | - |
| 1778043347 | 12.78° C | 68% | 1005.2 hPa | 0 mm | - | - | - |
| 1778042747 | 12.78° C | 68% | 1005 hPa | 0 mm | - | - | - |
| 1778042147 | 12.22° C | 70% | 1004.6 hPa | 0 mm | - | - | - |
| 1778041547 | 11.67° C | 70% | 1004.7 hPa | 0 mm | - | - | - |
| 1778040947 | 11.11° C | 72% | 1004.8 hPa | 0 mm | - | - | - |
| 1778040347 | 10.56° C | 75% | 1004.5 hPa | 0 mm | - | - | - |
| 1778039747 | 10° C | 78% | 1004.4 hPa | 0 mm | - | - | - |
| 1778039147 | 9.44° C | 83% | 1004.5 hPa | 0 mm | - | - | - |
| 1778038547 | 9.44° C | 85% | 1004.4 hPa | 0 mm | - | - | - |
| 1778037947 | 9.44° C | 85% | 1004.4 hPa | 0 mm | - | - | - |
| 1778037347 | 9.44° C | 83% | 1004.4 hPa | 0 mm | - | - | - |
| 1778036747 | 10° C | 83% | 1004.3 hPa | 0 mm | - | - | - |
| 1778036147 | 10° C | 81% | 1004.3 hPa | 0 mm | - | - | - |
| 1778035547 | 10° C | 80% | 1004.1 hPa | 0 mm | - | - | - |
| 1778034947 | 10.56° C | 78% | 1004.1 hPa | 0 mm | - | - | - |
| 1778034347 | 10.56° C | 77% | 1004 hPa | 0 mm | - | - | - |
* Rain latest hour (hover to see other rain measurements)
** Current wind speed in m/s (hover to see current wind gust speed)